createdAt,value
2017-09-15T00:00:20.671Z,23.33
2017-09-15T00:02:50.494Z,19.87
2017-09-15T00:05:20.150Z,19.80
2017-09-15T00:07:49.224Z,22.43
2017-09-15T00:10:18.282Z,17.17
2017-09-15T00:12:48.108Z,14.20
2017-09-15T00:15:17.160Z,18.57
2017-09-15T00:17:46.219Z,18.73
2017-09-15T00:20:15.339Z,21.47
2017-09-15T00:22:46.007Z,18.00
2017-09-15T00:25:15.857Z,21.40
2017-09-15T00:27:44.902Z,18.30
2017-09-15T00:30:13.992Z,18.43
2017-09-15T00:32:43.060Z,23.93
2017-09-15T00:35:12.225Z,22.33
2017-09-15T00:37:41.325Z,23.10
2017-09-15T00:40:10.382Z,22.90
2017-09-15T00:42:39.430Z,25.50
2017-09-15T00:45:08.531Z,24.47
2017-09-15T00:47:37.608Z,23.70
2017-09-15T00:50:06.699Z,21.90
2017-09-15T00:52:36.489Z,27.80
2017-09-15T00:55:05.591Z,22.40
2017-09-15T00:57:34.627Z,27.73
2017-09-15T01:00:03.720Z,27.27
2017-09-15T01:02:32.797Z,25.67
2017-09-15T01:05:01.856Z,22.00
2017-09-15T01:07:31.089Z,19.33
2017-09-15T01:10:00.143Z,22.40
2017-09-15T01:12:29.192Z,25.07
2017-09-15T01:14:58.374Z,23.73
2017-09-15T01:17:28.171Z,19.73
2017-09-15T01:19:57.993Z,26.90
2017-09-15T01:22:27.053Z,21.90
2017-09-15T01:24:56.109Z,19.50
2017-09-15T01:27:25.179Z,18.30
2017-09-15T01:29:54.229Z,23.77
2017-09-15T01:32:24.943Z,25.47
2017-09-15T01:34:53.985Z,28.13
2017-09-15T01:37:23.809Z,27.00
2017-09-15T01:39:53.669Z,29.00
2017-09-15T01:42:22.785Z,19.83
2017-09-15T01:44:51.836Z,18.20
2017-09-15T01:47:20.904Z,24.03
2017-09-15T01:49:50.889Z,26.30
2017-09-15T01:52:19.951Z,20.37
2017-09-15T01:54:49.035Z,21.70
2017-09-15T01:57:18.091Z,19.17
2017-09-15T01:59:47.918Z,21.60
2017-09-15T02:02:17.743Z,19.10
2017-09-15T02:04:46.821Z,21.03
2017-09-15T02:07:16.648Z,18.23
2017-09-15T02:09:46.033Z,22.33
2017-09-15T02:12:15.871Z,20.03
2017-09-15T02:14:44.919Z,16.00
2017-09-15T02:17:13.972Z,17.70
2017-09-15T02:19:43.068Z,18.60
2017-09-15T02:22:12.147Z,16.53
2017-09-15T02:24:41.210Z,19.40
2017-09-15T02:27:10.261Z,17.63
2017-09-15T02:29:39.357Z,20.50
2017-09-15T02:32:08.382Z,19.33
2017-09-15T02:34:37.432Z,23.33
2017-09-15T02:37:06.515Z,18.50
2017-09-15T02:39:35.556Z,20.33
2017-09-15T02:42:04.625Z,22.30
2017-09-15T02:44:33.673Z,15.30
2017-09-15T02:47:02.744Z,18.10
2017-09-15T02:49:31.783Z,17.97
2017-09-15T02:52:00.883Z,19.73
2017-09-15T02:54:29.934Z,24.13
2017-09-15T02:56:59.001Z,21.00
2017-09-15T02:59:28.049Z,15.23
2017-09-15T03:01:58.165Z,18.20
2017-09-15T03:04:27.207Z,17.70
2017-09-15T03:06:56.271Z,17.17
2017-09-15T03:09:26.122Z,19.10
2017-09-15T03:11:55.161Z,17.37
2017-09-15T03:14:24.253Z,16.20
2017-09-15T03:16:53.314Z,17.90
2017-09-15T03:19:22.367Z,19.43
2017-09-15T03:21:52.220Z,16.93
2017-09-15T03:24:21.267Z,15.60
2017-09-15T03:26:51.102Z,14.77
2017-09-15T03:29:20.174Z,14.50
2017-09-15T03:31:50.008Z,11.30
2017-09-15T03:34:19.147Z,10.33
2017-09-15T03:36:48.256Z,15.27
2017-09-15T03:39:17.280Z,11.23
2017-09-15T03:41:47.097Z,12.43
2017-09-15T03:44:16.948Z,12.83
2017-09-15T03:46:46.028Z,15.73
2017-09-15T03:49:15.179Z,15.63
2017-09-15T03:51:44.237Z,15.13
2017-09-15T03:54:13.296Z,18.53
2017-09-15T03:56:43.164Z,13.30
2017-09-15T03:59:12.220Z,16.20
2017-09-15T04:01:41.270Z,14.10
2017-09-15T04:04:10.328Z,18.60
2017-09-15T04:06:39.388Z,16.93
2017-09-15T04:09:08.476Z,16.90
2017-09-15T04:11:38.329Z,19.00
2017-09-15T04:14:07.383Z,18.77
2017-09-15T04:16:37.232Z,23.30
2017-09-15T04:19:06.310Z,19.57
2017-09-15T04:21:36.102Z,17.63
2017-09-15T04:24:05.941Z,18.73
2017-09-15T04:26:35.084Z,23.33
2017-09-15T04:29:04.390Z,21.97
2017-09-15T04:31:33.448Z,18.33
2017-09-15T04:34:02.528Z,20.83
2017-09-15T04:36:31.587Z,23.33
2017-09-15T04:39:00.679Z,22.70
2017-09-15T04:41:29.764Z,19.83
2017-09-15T04:43:58.840Z,22.53
2017-09-15T04:46:27.919Z,18.20
2017-09-15T04:48:57.004Z,20.03
2017-09-15T04:51:26.059Z,23.60
2017-09-15T04:53:55.132Z,22.27
2017-09-15T04:56:25.000Z,23.07
2017-09-15T04:58:54.056Z,26.17
2017-09-15T05:01:23.141Z,23.27
2017-09-15T05:03:52.172Z,23.30
2017-09-15T05:06:21.236Z,30.83
2017-09-15T05:08:50.288Z,25.40
2017-09-15T05:11:19.352Z,29.50
2017-09-15T05:13:49.189Z,25.97
2017-09-15T05:16:18.256Z,23.00
2017-09-15T05:18:48.368Z,29.73
2017-09-15T05:21:17.429Z,28.60
2017-09-15T05:23:46.472Z,33.33
2017-09-15T05:26:15.539Z,25.93
2017-09-15T05:28:44.645Z,29.37
2017-09-15T05:31:13.711Z,26.90
2017-09-15T05:33:42.783Z,25.70
2017-09-15T05:36:11.835Z,26.77
2017-09-15T05:38:41.651Z,29.77
2017-09-15T05:41:10.746Z,26.40
2017-09-15T05:43:39.800Z,29.37
2017-09-15T05:46:08.865Z,28.90
2017-09-15T05:48:38.144Z,32.67
2017-09-15T05:51:07.191Z,27.27
2017-09-15T05:53:36.500Z,26.20
2017-09-15T05:56:05.560Z,30.67
2017-09-15T05:58:34.664Z,28.90
2017-09-15T06:01:03.751Z,30.27
2017-09-15T06:03:32.797Z,27.97
2017-09-15T06:06:01.921Z,30.67
2017-09-15T06:08:31.761Z,35.10
2017-09-15T06:11:00.995Z,26.83
2017-09-15T06:13:30.049Z,28.37
2017-09-15T06:15:59.117Z,25.67
2017-09-15T06:18:28.960Z,27.20
2017-09-15T06:20:58.044Z,35.77
2017-09-15T06:23:27.112Z,24.97
2017-09-15T06:25:56.949Z,30.53
2017-09-15T06:28:25.991Z,26.93
2017-09-15T06:30:55.040Z,29.40
2017-09-15T06:33:24.136Z,28.60
2017-09-15T06:35:53.197Z,28.47
2017-09-15T06:38:22.236Z,27.60
2017-09-15T06:40:51.319Z,24.50
2017-09-15T06:43:20.408Z,30.47
2017-09-15T06:45:50.250Z,25.40
2017-09-15T06:48:19.320Z,23.40
2017-09-15T06:50:48.394Z,23.53
2017-09-15T06:53:17.480Z,18.90
2017-09-15T06:55:46.562Z,25.53
2017-09-15T06:58:15.653Z,20.73
2017-09-15T07:00:45.539Z,17.23
2017-09-15T07:03:14.608Z,16.53
2017-09-15T07:05:44.443Z,20.23
2017-09-15T07:08:13.618Z,21.00
2017-09-15T07:10:42.663Z,22.30
2017-09-15T07:13:11.708Z,21.57
2017-09-15T07:15:40.802Z,19.43
2017-09-15T07:18:10.609Z,18.23
2017-09-15T07:20:40.467Z,22.10
2017-09-15T07:23:09.544Z,24.17
2017-09-15T07:25:38.769Z,19.63
2017-09-15T07:28:07.849Z,18.70
2017-09-15T07:30:36.898Z,20.23
2017-09-15T07:33:05.944Z,25.63
2017-09-15T07:35:35.048Z,23.07
2017-09-15T07:38:04.483Z,19.30
2017-09-15T07:40:33.543Z,18.40
2017-09-15T07:43:02.608Z,18.27
2017-09-15T07:45:31.673Z,16.00
2017-09-15T07:48:00.731Z,22.07
2017-09-15T07:50:29.780Z,14.17
2017-09-15T07:52:59.641Z,14.50
2017-09-15T07:55:28.705Z,13.30
2017-09-15T07:57:57.785Z,13.57
2017-09-15T08:00:27.620Z,16.40
2017-09-15T08:02:56.660Z,14.40
2017-09-15T08:05:25.732Z,13.60
2017-09-15T08:07:54.807Z,14.80
2017-09-15T08:10:23.880Z,17.00
2017-09-15T08:12:54.039Z,16.97
2017-09-15T08:15:23.331Z,12.83
2017-09-15T08:17:52.364Z,11.03
2017-09-15T08:20:23.043Z,10.33
2017-09-15T08:22:52.167Z,11.27
2017-09-15T08:25:21.249Z,13.27
2017-09-15T08:27:50.370Z,11.33
2017-09-15T08:30:19.469Z,9.90
2017-09-15T08:32:48.501Z,8.13
2017-09-15T08:35:18.545Z,6.03
2017-09-15T08:37:48.627Z,7.70
2017-09-15T08:40:17.673Z,9.03
2017-09-15T08:42:46.711Z,7.00
2017-09-15T08:45:15.783Z,9.30
2017-09-15T08:47:44.880Z,5.57
2017-09-15T08:50:13.932Z,9.70
2017-09-15T08:52:43.063Z,11.13
2017-09-15T08:55:12.111Z,9.83
2017-09-15T08:57:41.936Z,8.07
2017-09-15T09:00:11.776Z,6.57
2017-09-15T09:02:40.839Z,8.07
2017-09-15T09:05:09.911Z,9.97
2017-09-15T09:07:38.927Z,7.00
2017-09-15T09:10:08.009Z,12.17
2017-09-15T09:12:37.840Z,9.93
2017-09-15T09:15:06.925Z,7.20
2017-09-15T09:17:36.732Z,7.93
2017-09-15T09:20:06.903Z,7.00
2017-09-15T09:22:35.957Z,10.40
2017-09-15T09:25:04.995Z,8.30
2017-09-15T09:27:34.298Z,9.47
2017-09-15T09:30:03.372Z,12.73
2017-09-15T09:32:32.452Z,8.53
2017-09-15T09:35:01.489Z,9.27
2017-09-15T09:37:30.545Z,9.50
2017-09-15T09:39:59.599Z,13.90
2017-09-15T09:42:28.667Z,13.13
2017-09-15T09:44:58.111Z,8.90
2017-09-15T09:47:27.139Z,7.90
2017-09-15T09:49:56.229Z,9.80
2017-09-15T09:52:25.277Z,8.70
2017-09-15T09:54:54.318Z,10.90
2017-09-15T09:57:23.407Z,8.23
2017-09-15T09:59:52.492Z,10.03
2017-09-15T10:02:21.506Z,6.43
2017-09-15T10:04:50.567Z,7.20
2017-09-15T10:07:20.408Z,7.57
2017-09-15T10:09:49.451Z,8.33
2017-09-15T10:12:19.284Z,6.07
2017-09-15T10:14:48.334Z,6.50
2017-09-15T10:17:17.393Z,9.40
2017-09-15T10:19:46.488Z,7.50
2017-09-15T10:22:15.548Z,4.63
2017-09-15T10:24:44.591Z,7.07
2017-09-15T10:27:13.668Z,7.80
2017-09-15T10:29:43.502Z,4.60
2017-09-15T10:32:12.592Z,4.93
2017-09-15T10:34:41.631Z,4.93
2017-09-15T10:37:10.679Z,4.23
2017-09-15T10:39:39.751Z,4.50
2017-09-15T10:42:09.581Z,5.00
2017-09-15T10:44:39.432Z,3.80
2017-09-15T10:47:08.488Z,6.13
2017-09-15T10:49:38.308Z,5.60
2017-09-15T10:52:07.359Z,4.77
2017-09-15T10:54:36.437Z,4.20
2017-09-15T10:57:05.464Z,6.50
2017-09-15T10:59:39.905Z,5.00
2017-09-15T11:02:09.727Z,6.80
2017-09-15T11:04:38.757Z,5.30
2017-09-15T11:07:08.577Z,5.10
2017-09-15T11:09:37.636Z,4.30
2017-09-15T11:12:06.693Z,5.30
2017-09-15T11:14:35.771Z,4.63
2017-09-15T11:17:04.815Z,5.87
2017-09-15T11:19:33.899Z,5.83
2017-09-15T11:22:03.691Z,4.90
2017-09-15T11:24:33.520Z,4.77
2017-09-15T11:27:03.348Z,5.23
2017-09-15T11:29:32.428Z,5.40
2017-09-15T11:32:02.489Z,6.53
2017-09-15T11:34:31.557Z,6.13
2017-09-15T11:37:00.622Z,8.13
2017-09-15T11:39:29.705Z,7.60
2017-09-15T11:41:58.751Z,6.57
2017-09-15T11:44:27.816Z,8.30
2017-09-15T11:46:56.872Z,6.87
2017-09-15T11:49:25.932Z,6.00
2017-09-15T11:51:55.825Z,4.70
2017-09-15T11:54:25.652Z,7.83
2017-09-15T11:56:54.749Z,5.77
2017-09-15T11:59:23.785Z,3.20
2017-09-15T12:01:52.856Z,4.00
2017-09-15T12:04:21.948Z,3.23
2017-09-15T12:06:51.113Z,6.83
2017-09-15T12:09:20.147Z,3.70
2017-09-15T12:11:49.176Z,2.77
2017-09-15T12:14:18.263Z,4.07
2017-09-15T12:16:47.331Z,4.27
2017-09-15T12:19:16.408Z,3.83
2017-09-15T12:21:46.217Z,6.30
2017-09-15T12:24:16.076Z,4.20
2017-09-15T12:26:45.123Z,3.37
2017-09-15T12:29:14.177Z,6.00
2017-09-15T12:31:43.219Z,3.90
2017-09-15T12:34:12.291Z,3.47
2017-09-15T12:36:42.121Z,4.03
2017-09-15T12:39:11.160Z,3.20
2017-09-15T12:41:40.205Z,8.53
2017-09-15T12:44:10.025Z,3.10
2017-09-15T12:46:40.247Z,3.20
2017-09-15T12:49:09.371Z,4.90
2017-09-15T12:51:38.460Z,3.53
2017-09-15T12:54:07.599Z,3.47
2017-09-15T12:56:36.686Z,5.20
2017-09-15T12:59:05.726Z,4.73
2017-09-15T13:01:34.804Z,3.90
2017-09-15T13:04:04.629Z,3.53
2017-09-15T13:06:34.701Z,3.53
2017-09-15T13:09:03.820Z,2.87
2017-09-15T13:11:32.854Z,2.80
2017-09-15T13:14:01.914Z,2.90
2017-09-15T13:16:31.736Z,2.57
2017-09-15T13:19:01.566Z,3.47
2017-09-15T13:21:30.597Z,3.90
2017-09-15T13:23:59.678Z,6.23
2017-09-15T13:26:28.730Z,2.33
2017-09-15T13:28:58.599Z,2.33
2017-09-15T13:31:27.820Z,2.90
2017-09-15T13:33:56.872Z,2.50
2017-09-15T13:36:25.953Z,3.10
2017-09-15T13:38:55.244Z,2.40
2017-09-15T13:41:24.305Z,3.20
2017-09-15T13:43:53.364Z,3.40
2017-09-15T13:46:22.481Z,2.67
2017-09-15T13:48:51.552Z,2.07
2017-09-15T13:51:20.615Z,5.60
2017-09-15T13:53:50.521Z,4.27
2017-09-15T13:56:19.546Z,5.87
2017-09-15T13:58:48.641Z,5.20
2017-09-15T14:01:17.713Z,6.20
2017-09-15T14:03:47.563Z,4.17
2017-09-15T14:06:16.637Z,3.63
2017-09-15T14:08:46.478Z,2.20
2017-09-15T14:11:15.549Z,4.07
2017-09-15T14:13:44.588Z,1.93
2017-09-15T14:16:13.759Z,9.13
2017-09-15T14:18:42.797Z,1.83
2017-09-15T14:21:11.881Z,2.50
2017-09-15T14:23:40.948Z,2.60
2017-09-15T14:26:10.000Z,2.10
2017-09-15T14:28:39.935Z,3.10
2017-09-15T14:31:08.959Z,2.30
2017-09-15T14:33:38.007Z,2.80
2017-09-15T14:36:07.809Z,2.83
2017-09-15T14:38:37.635Z,3.30
2017-09-15T14:41:07.477Z,2.70
2017-09-15T14:43:36.527Z,2.13
2017-09-15T14:46:06.362Z,2.03
2017-09-15T14:48:36.184Z,3.20
2017-09-15T14:51:05.245Z,3.30
2017-09-15T14:53:34.410Z,2.37
2017-09-15T14:56:03.500Z,2.43
2017-09-15T14:58:32.546Z,2.27
2017-09-15T15:01:02.371Z,2.10
2017-09-15T15:03:31.452Z,1.63
2017-09-15T15:06:01.286Z,3.80
2017-09-15T15:08:31.118Z,1.90
2017-09-15T15:11:00.168Z,2.80
2017-09-15T15:13:29.967Z,2.57
2017-09-15T15:15:59.037Z,2.03
2017-09-15T15:18:28.086Z,2.57
2017-09-15T15:20:57.906Z,2.77
2017-09-15T15:23:26.954Z,2.33
2017-09-15T15:25:56.068Z,2.50
2017-09-15T15:28:25.123Z,2.70
2017-09-15T15:30:54.171Z,2.63
2017-09-15T15:33:24.016Z,4.07
2017-09-15T15:35:53.057Z,4.87
2017-09-15T15:38:22.157Z,4.63
2017-09-15T15:40:51.192Z,4.40
2017-09-15T15:43:20.264Z,2.77
2017-09-15T15:45:50.092Z,2.33
2017-09-15T15:48:19.909Z,1.97
2017-09-15T15:50:48.987Z,1.83
2017-09-15T15:53:18.802Z,2.37
2017-09-15T15:55:48.653Z,4.10
2017-09-15T15:58:17.866Z,2.13
2017-09-15T16:00:46.929Z,1.20
2017-09-15T16:03:15.992Z,2.47
2017-09-15T16:05:45.036Z,1.80
2017-09-15T16:08:14.113Z,1.77
2017-09-15T16:10:43.159Z,2.20
2017-09-15T16:13:12.230Z,2.37
2017-09-15T16:15:41.280Z,2.53
2017-09-15T16:18:11.098Z,3.27
2017-09-15T16:20:40.157Z,2.33
2017-09-15T16:23:09.236Z,5.50
2017-09-15T16:25:38.301Z,2.07
2017-09-15T16:28:07.351Z,2.23
2017-09-15T16:34:23.083Z,1.70
2017-09-15T16:36:52.168Z,1.87
2017-09-15T16:39:26.721Z,6.20
2017-09-15T16:42:01.964Z,3.33
2017-09-15T16:44:37.244Z,2.43
2017-09-15T16:47:11.797Z,3.43
2017-09-15T16:49:40.188Z,2.43
2017-09-15T16:52:09.343Z,2.43
2017-09-15T16:54:38.408Z,1.57
2017-09-15T16:57:08.249Z,3.53
2017-09-15T16:59:37.334Z,3.17
2017-09-15T17:02:07.169Z,3.63
2017-09-15T17:04:36.234Z,3.23
2017-09-15T17:07:06.065Z,3.53
2017-09-15T17:09:35.131Z,1.87
2017-09-15T17:12:04.160Z,2.33
2017-09-15T17:14:33.219Z,3.53
2017-09-15T17:17:03.056Z,1.80
2017-09-15T17:19:32.247Z,2.87
2017-09-15T17:22:02.203Z,2.10
2017-09-15T17:24:31.263Z,2.50
2017-09-15T17:27:00.382Z,2.53
2017-09-15T17:29:29.468Z,2.40
2017-09-15T17:31:58.541Z,3.40
2017-09-15T17:34:27.604Z,9.57
2017-09-15T17:36:56.667Z,3.10
2017-09-15T17:39:25.720Z,5.70
2017-09-15T17:41:55.569Z,7.53
2017-09-15T17:44:24.611Z,4.73
2017-09-15T17:46:53.676Z,3.60
2017-09-15T17:49:22.741Z,5.57
2017-09-15T17:51:51.797Z,8.60
2017-09-15T17:54:21.603Z,8.80
2017-09-15T17:56:50.685Z,4.73
2017-09-15T17:59:20.868Z,6.17
2017-09-15T18:01:51.130Z,7.47
2017-09-15T18:04:20.188Z,6.27
2017-09-15T18:06:50.027Z,5.10
2017-09-15T18:09:19.095Z,4.67
2017-09-15T18:11:48.136Z,7.73
2017-09-15T18:14:17.318Z,4.50
2017-09-15T18:16:46.385Z,4.90
2017-09-15T18:19:15.469Z,4.90
2017-09-15T18:21:44.529Z,4.77
2017-09-15T18:24:13.867Z,5.77
2017-09-15T18:26:42.949Z,8.03
2017-09-15T18:29:12.785Z,9.37
2017-09-15T18:31:41.845Z,5.03
2017-09-15T18:34:11.677Z,3.90
2017-09-15T18:36:40.738Z,4.23
2017-09-15T18:39:10.618Z,6.77
2017-09-15T18:41:39.677Z,7.10
2017-09-15T18:44:08.723Z,4.10
2017-09-15T18:46:37.864Z,8.40
2017-09-15T18:49:07.688Z,4.57
2017-09-15T18:51:36.776Z,5.03
2017-09-15T18:54:05.856Z,4.13
2017-09-15T18:56:34.895Z,4.80
2017-09-15T18:59:03.976Z,5.80
2017-09-15T19:01:33.052Z,4.40
2017-09-15T19:04:02.867Z,5.00
2017-09-15T19:06:32.731Z,5.10
2017-09-15T19:09:01.784Z,6.93
2017-09-15T19:11:30.857Z,7.87
2017-09-15T19:13:59.945Z,6.10
2017-09-15T19:16:29.808Z,8.63
2017-09-15T19:18:58.868Z,7.63
2017-09-15T19:21:28.745Z,6.83
2017-09-15T19:23:57.827Z,8.20
2017-09-15T19:26:26.864Z,7.43
2017-09-15T19:28:56.695Z,8.67
2017-09-15T19:31:25.870Z,5.73
2017-09-15T19:33:55.713Z,5.93
2017-09-15T19:36:25.043Z,10.50
2017-09-15T19:38:54.123Z,6.63
2017-09-15T19:41:23.186Z,7.83
2017-09-15T19:43:52.257Z,8.63
2017-09-15T19:46:21.343Z,6.73
2017-09-15T19:48:50.406Z,6.40
2017-09-15T19:51:19.547Z,7.00
2017-09-15T19:53:48.608Z,8.77
2017-09-15T19:56:17.700Z,7.70
2017-09-15T19:58:46.756Z,8.60
2017-09-15T20:01:16.656Z,8.10
2017-09-15T20:03:46.503Z,9.53
2017-09-15T20:06:16.319Z,6.93
2017-09-15T20:08:45.396Z,7.07
2017-09-15T20:11:15.248Z,6.43
2017-09-15T20:13:44.280Z,8.53
2017-09-15T20:16:13.385Z,8.50
2017-09-15T20:18:43.215Z,7.10
2017-09-15T20:21:13.097Z,7.20
2017-09-15T20:23:42.174Z,7.67
2017-09-15T20:26:11.237Z,7.50
2017-09-15T20:28:40.275Z,8.17
2017-09-15T20:31:09.364Z,8.60
2017-09-15T20:33:38.425Z,7.70
2017-09-15T20:36:07.586Z,8.80
2017-09-15T20:38:37.430Z,8.30
2017-09-15T20:41:06.515Z,12.57
2017-09-15T20:43:35.596Z,11.13
2017-09-15T20:46:05.398Z,8.00
2017-09-15T20:48:35.253Z,8.00
2017-09-15T20:51:04.313Z,7.13
2017-09-15T20:53:34.163Z,8.60
2017-09-15T20:56:04.000Z,8.73
2017-09-15T20:58:33.105Z,6.83
2017-09-15T21:01:02.156Z,9.53
2017-09-15T21:03:31.221Z,7.80
2017-09-15T21:06:00.316Z,7.67
2017-09-15T21:08:29.357Z,9.67
2017-09-15T21:10:58.416Z,8.97
2017-09-15T21:13:28.260Z,7.70
2017-09-15T21:15:57.312Z,10.93
2017-09-15T21:18:27.147Z,8.87
2017-09-15T21:20:56.208Z,7.77
2017-09-15T21:23:26.009Z,6.80
2017-09-15T21:25:55.077Z,9.10
2017-09-15T21:28:24.173Z,8.10
2017-09-15T21:30:53.338Z,8.87
2017-09-15T21:33:22.920Z,7.37
2017-09-15T21:35:52.472Z,8.27
2017-09-15T21:38:21.545Z,7.90
2017-09-15T21:40:51.364Z,7.60
2017-09-15T21:43:20.423Z,7.67
2017-09-15T21:45:50.290Z,8.80
2017-09-15T21:48:19.367Z,8.27
2017-09-15T21:50:48.744Z,8.67
2017-09-15T21:53:18.554Z,9.33
2017-09-15T21:55:47.716Z,7.53
2017-09-15T21:58:16.852Z,8.60
2017-09-15T22:00:45.874Z,7.13
2017-09-15T22:03:14.932Z,7.67
2017-09-15T22:05:44.025Z,9.33
2017-09-15T22:08:13.874Z,8.57
2017-09-15T22:10:42.928Z,8.40
2017-09-15T22:13:12.000Z,8.00
2017-09-15T22:15:41.817Z,11.60
2017-09-15T22:18:10.872Z,8.63
2017-09-15T22:20:39.961Z,15.70
2017-09-15T22:23:09.047Z,11.30
2017-09-15T22:25:38.093Z,8.87
2017-09-15T22:28:07.123Z,11.03
2017-09-15T22:30:36.196Z,9.53
2017-09-15T22:33:05.271Z,10.13
2017-09-15T22:35:34.316Z,10.20
2017-09-15T22:38:04.132Z,8.60
2017-09-15T22:40:35.914Z,9.90
2017-09-15T22:43:04.996Z,10.57
2017-09-15T22:45:35.789Z,8.67
2017-09-15T22:48:04.818Z,8.13
2017-09-15T22:50:34.666Z,8.20
2017-09-15T22:53:03.699Z,8.80
2017-09-15T22:55:33.492Z,9.53
2017-09-15T22:58:03.334Z,8.80
2017-09-15T23:00:32.678Z,8.53
2017-09-15T23:03:01.738Z,9.67
2017-09-15T23:05:30.795Z,8.73
2017-09-15T23:07:59.837Z,7.47
2017-09-15T23:10:29.671Z,7.20
2017-09-15T23:12:58.732Z,10.37
2017-09-15T23:15:27.802Z,8.03
2017-09-15T23:17:56.861Z,8.50
2017-09-15T23:20:25.952Z,9.37
2017-09-15T23:22:54.996Z,11.40
2017-09-15T23:25:24.090Z,10.97
2017-09-15T23:27:53.135Z,9.20
2017-09-15T23:30:22.185Z,12.47
2017-09-15T23:32:51.279Z,10.40
2017-09-15T23:35:20.339Z,8.37
2017-09-15T23:37:49.376Z,11.20
2017-09-15T23:40:18.759Z,10.70
2017-09-15T23:42:47.807Z,9.30
2017-09-15T23:45:16.864Z,13.07
2017-09-15T23:47:46.032Z,8.83
2017-09-15T23:50:15.129Z,9.57
2017-09-15T23:52:44.190Z,9.10
2017-09-15T23:55:14.001Z,10.63
2017-09-15T23:57:43.862Z,9.87
